createdAt,value
2018-04-08T00:00:49.886Z,15.9
2018-04-08T00:01:51.275Z,15.8
2018-04-08T00:02:52.690Z,15.8
2018-04-08T00:03:54.070Z,15.8
2018-04-08T00:04:55.546Z,15.7
2018-04-08T00:05:56.946Z,15.6
2018-04-08T00:06:58.326Z,15.6
2018-04-08T00:07:59.716Z,15.5
2018-04-08T00:09:01.109Z,15.5
2018-04-08T00:10:02.501Z,15.5
2018-04-08T00:11:03.895Z,15.5
2018-04-08T00:12:05.415Z,15.4
2018-04-08T00:13:06.794Z,15.4
2018-04-08T00:14:08.181Z,15.4
2018-04-08T00:15:09.574Z,15.3
2018-04-08T00:16:10.997Z,15.3
2018-04-08T00:17:12.432Z,15.2
2018-04-08T00:18:13.821Z,15.2
2018-04-08T00:19:15.216Z,15.1
2018-04-08T00:20:16.602Z,15.2
2018-04-08T00:21:17.994Z,15.3
2018-04-08T00:22:19.384Z,15.1
2018-04-08T00:23:20.778Z,15.1
2018-04-08T00:24:22.172Z,15.2
2018-04-08T00:25:23.596Z,15.2
2018-04-08T00:26:24.987Z,15.2
2018-04-08T00:27:26.407Z,15.2
2018-04-08T00:28:27.831Z,15.1
2018-04-08T00:29:29.256Z,15.1
2018-04-08T00:30:30.702Z,15.1
2018-04-08T00:31:32.090Z,15.0
2018-04-08T00:32:33.481Z,15.1
2018-04-08T00:33:34.872Z,15.0
2018-04-08T00:34:36.288Z,15.0
2018-04-08T00:35:37.692Z,15.0
2018-04-08T00:36:39.067Z,15.1
2018-04-08T00:37:40.587Z,15.1
2018-04-08T00:38:41.920Z,15.0
2018-04-08T00:39:43.320Z,15.2
2018-04-08T00:40:44.710Z,15.2
2018-04-08T00:41:46.104Z,15.2
2018-04-08T00:42:47.542Z,15.3
2018-04-08T00:43:48.933Z,15.2
2018-04-08T00:44:50.380Z,15.2
2018-04-08T00:45:51.769Z,15.3
2018-04-08T00:46:53.157Z,15.4
2018-04-08T00:47:54.549Z,15.3
2018-04-08T00:48:55.941Z,15.3
2018-04-08T00:49:57.332Z,15.3
2018-04-08T00:50:58.719Z,15.3
2018-04-08T00:52:00.107Z,15.3
2018-04-08T00:53:01.523Z,15.4
2018-04-08T00:54:02.904Z,15.4
2018-04-08T00:55:04.296Z,15.4
2018-04-08T00:56:05.695Z,15.4
2018-04-08T00:57:07.089Z,15.4
2018-04-08T00:58:08.473Z,15.5
2018-04-08T00:59:09.863Z,15.5
2018-04-08T01:00:11.253Z,15.5
2018-04-08T01:01:12.647Z,15.5
2018-04-08T01:02:14.038Z,15.5
2018-04-08T01:03:15.432Z,15.4
2018-04-08T01:04:16.820Z,15.4
2018-04-08T01:05:18.207Z,15.5
2018-04-08T01:06:19.598Z,15.4
2018-04-08T01:07:20.988Z,15.5
2018-04-08T01:08:22.382Z,15.3
2018-04-08T01:09:23.772Z,15.3
2018-04-08T01:10:25.171Z,15.3
2018-04-08T01:11:26.559Z,15.2
2018-04-08T01:12:27.980Z,15.2
2018-04-08T01:13:29.375Z,15.2
2018-04-08T01:14:30.763Z,15.2
2018-04-08T01:15:32.154Z,15.1
2018-04-08T01:16:33.546Z,15.1
2018-04-08T01:17:34.947Z,15.2
2018-04-08T01:18:36.328Z,15.2
2018-04-08T01:19:37.723Z,15.2
2018-04-08T01:20:39.110Z,15.2
2018-04-08T01:21:40.500Z,15.2
2018-04-08T01:22:41.887Z,15.2
2018-04-08T01:23:43.283Z,15.3
2018-04-08T01:24:44.675Z,15.2
2018-04-08T01:25:46.063Z,15.3
2018-04-08T01:26:47.453Z,15.3
2018-04-08T01:27:48.840Z,15.4
2018-04-08T01:28:50.348Z,15.3
2018-04-08T01:29:51.845Z,15.4
2018-04-08T01:30:53.237Z,15.4
2018-04-08T01:31:54.628Z,15.4
2018-04-08T01:32:56.022Z,15.4
2018-04-08T01:33:57.426Z,15.5
2018-04-08T01:34:58.811Z,15.5
2018-04-08T01:36:00.200Z,15.4
2018-04-08T01:37:01.590Z,15.5
2018-04-08T01:38:03.011Z,15.6
2018-04-08T01:39:04.444Z,15.6
2018-04-08T01:40:05.849Z,15.7
2018-04-08T01:41:07.265Z,15.7
2018-04-08T01:42:08.680Z,15.6
2018-04-08T01:43:10.137Z,15.7
2018-04-08T01:44:11.528Z,15.7
2018-04-08T01:45:12.916Z,15.7
2018-04-08T01:46:14.308Z,15.7
2018-04-08T01:47:15.709Z,15.8
2018-04-08T01:48:17.103Z,15.8
2018-04-08T01:49:18.490Z,15.8
2018-04-08T01:50:19.882Z,15.7
2018-04-08T01:51:21.268Z,15.8
2018-04-08T01:52:22.698Z,15.7
2018-04-08T01:53:24.089Z,15.7
2018-04-08T01:54:25.495Z,15.8
2018-04-08T01:55:26.882Z,15.9
2018-04-08T01:56:28.305Z,15.9
2018-04-08T01:57:29.695Z,15.8
2018-04-08T01:58:31.104Z,15.9
2018-04-08T01:59:32.496Z,15.9
2018-04-08T02:00:33.894Z,15.9
2018-04-08T02:01:35.281Z,15.9
2018-04-08T02:02:36.671Z,15.9
2018-04-08T02:03:38.071Z,15.9
2018-04-08T02:04:39.473Z,15.8
2018-04-08T02:05:40.865Z,15.9
2018-04-08T02:06:42.364Z,16.0
2018-04-08T02:07:43.770Z,15.8
2018-04-08T02:08:45.146Z,15.9
2018-04-08T02:09:46.538Z,15.9
2018-04-08T02:10:47.930Z,15.9
2018-04-08T02:11:49.325Z,16.0
2018-04-08T02:12:50.715Z,15.9
2018-04-08T02:13:52.108Z,15.9
2018-04-08T02:14:53.510Z,15.9
2018-04-08T02:15:54.896Z,16.0
2018-04-08T02:16:56.284Z,16.0
2018-04-08T02:17:57.674Z,15.9
2018-04-08T02:18:59.124Z,16.0
2018-04-08T02:20:00.498Z,15.9
2018-04-08T02:21:01.894Z,15.8
2018-04-08T02:22:03.305Z,15.8
2018-04-08T02:23:04.697Z,16.0
2018-04-08T02:24:06.086Z,15.8
2018-04-08T02:25:07.549Z,15.9
2018-04-08T02:26:08.976Z,15.8
2018-04-08T02:27:10.370Z,15.9
2018-04-08T02:28:11.760Z,15.9
2018-04-08T02:29:13.157Z,15.9
2018-04-08T02:30:14.543Z,15.9
2018-04-08T02:31:15.932Z,15.9
2018-04-08T02:32:17.321Z,15.9
2018-04-08T02:33:18.720Z,15.8
2018-04-08T02:34:20.112Z,15.8
2018-04-08T02:35:21.499Z,15.7
2018-04-08T02:36:22.890Z,15.7
2018-04-08T02:37:24.281Z,15.8
2018-04-08T02:38:25.668Z,15.7
2018-04-08T02:39:27.060Z,15.8
2018-04-08T02:40:28.459Z,15.8
2018-04-08T02:41:29.849Z,15.8
2018-04-08T02:42:31.286Z,15.8
2018-04-08T02:43:32.679Z,15.8
2018-04-08T02:44:34.080Z,15.8
2018-04-08T02:45:35.481Z,15.8
2018-04-08T02:46:36.882Z,15.8
2018-04-08T02:47:38.263Z,15.8
2018-04-08T02:48:39.652Z,15.7
2018-04-08T02:49:41.043Z,15.7
2018-04-08T02:50:42.433Z,15.8
2018-04-08T02:51:43.832Z,15.7
2018-04-08T02:52:45.216Z,15.7
2018-04-08T02:53:46.608Z,15.7
2018-04-08T02:54:48.003Z,15.6
2018-04-08T02:55:49.421Z,15.7
2018-04-08T02:56:50.813Z,15.6
2018-04-08T02:57:52.226Z,15.6
2018-04-08T02:58:53.617Z,15.6
2018-04-08T02:59:55.001Z,15.7
2018-04-08T03:00:56.395Z,15.6
2018-04-08T03:01:57.785Z,15.5
2018-04-08T03:02:59.182Z,15.5
2018-04-08T03:04:00.568Z,15.6
2018-04-08T03:05:01.970Z,15.6
2018-04-08T03:06:03.348Z,15.5
2018-04-08T03:07:04.743Z,15.5
2018-04-08T03:08:06.163Z,15.6
2018-04-08T03:09:07.559Z,15.5
2018-04-08T03:10:09.108Z,15.5
2018-04-08T03:11:10.521Z,15.5
2018-04-08T03:12:11.918Z,15.5
2018-04-08T03:13:13.303Z,15.4
2018-04-08T03:14:14.701Z,15.5
2018-04-08T03:15:16.081Z,15.3
2018-04-08T03:16:17.473Z,15.4
2018-04-08T03:17:18.961Z,15.2
2018-04-08T03:18:20.357Z,15.4
2018-04-08T03:19:21.748Z,15.3
2018-04-08T03:20:23.138Z,15.3
2018-04-08T03:21:24.529Z,15.3
2018-04-08T03:22:25.917Z,15.3
2018-04-08T03:23:27.316Z,15.2
2018-04-08T03:24:28.712Z,15.2
2018-04-08T03:25:30.132Z,15.2
2018-04-08T03:26:31.523Z,15.3
2018-04-08T03:27:32.909Z,15.2
2018-04-08T03:28:34.301Z,15.2
2018-04-08T03:29:35.690Z,15.2
2018-04-08T03:30:37.080Z,15.2
2018-04-08T03:31:38.488Z,15.2
2018-04-08T03:32:39.878Z,15.2
2018-04-08T03:33:41.266Z,15.2
2018-04-08T03:34:42.653Z,15.2
2018-04-08T03:35:44.040Z,15.2
2018-04-08T03:36:45.432Z,15.2
2018-04-08T03:37:46.827Z,15.2
2018-04-08T03:38:48.214Z,15.1
2018-04-08T03:39:49.640Z,15.2
2018-04-08T03:40:51.036Z,15.1
2018-04-08T03:41:52.437Z,15.2
2018-04-08T03:42:53.827Z,15.1
2018-04-08T03:43:55.217Z,15.2
2018-04-08T03:44:56.606Z,15.2
2018-04-08T03:45:57.994Z,15.2
2018-04-08T03:46:59.384Z,15.2
2018-04-08T03:48:00.779Z,15.2
2018-04-08T03:49:02.226Z,15.1
2018-04-08T03:50:03.613Z,15.1
2018-04-08T03:51:05.002Z,15.1
2018-04-08T03:52:06.392Z,15.1
2018-04-08T03:53:07.780Z,15.1
2018-04-08T03:54:09.190Z,15.1
2018-04-08T03:55:10.582Z,15.0
2018-04-08T03:56:11.969Z,15.0
2018-04-08T03:57:13.354Z,15.0
2018-04-08T03:58:14.820Z,14.9
2018-04-08T03:59:16.210Z,14.9
2018-04-08T04:00:17.696Z,14.9
2018-04-08T04:01:19.122Z,14.9
2018-04-08T04:02:20.522Z,14.9
2018-04-08T04:03:21.910Z,14.9
2018-04-08T04:04:23.301Z,14.9
2018-04-08T04:05:24.689Z,14.9
2018-04-08T04:06:26.075Z,14.8
2018-04-08T04:07:27.465Z,14.8
2018-04-08T04:08:28.856Z,14.9
2018-04-08T04:09:30.285Z,14.8
2018-04-08T04:10:31.672Z,14.7
2018-04-08T04:11:33.062Z,14.7
2018-04-08T04:12:34.451Z,14.7
2018-04-08T04:13:35.840Z,14.6
2018-04-08T04:14:37.232Z,14.5
2018-04-08T04:15:38.688Z,14.6
2018-04-08T04:16:40.086Z,14.4
2018-04-08T04:17:41.471Z,14.4
2018-04-08T04:18:42.862Z,14.4
2018-04-08T04:19:44.285Z,14.3
2018-04-08T04:20:45.675Z,14.3
2018-04-08T04:21:47.131Z,14.3
2018-04-08T04:22:48.514Z,14.3
2018-04-08T04:23:49.907Z,14.3
2018-04-08T04:24:51.300Z,14.2
2018-04-08T04:25:52.787Z,14.2
2018-04-08T04:26:54.213Z,14.2
2018-04-08T04:27:55.599Z,14.2
2018-04-08T04:28:56.988Z,14.2
2018-04-08T04:29:58.423Z,14.2
2018-04-08T04:30:59.813Z,14.1
2018-04-08T04:32:01.203Z,14.0
2018-04-08T04:33:02.590Z,14.1
2018-04-08T04:34:03.985Z,14.1
2018-04-08T04:35:05.373Z,14.2
2018-04-08T04:36:06.766Z,14.1
2018-04-08T04:37:08.155Z,14.1
2018-04-08T04:38:09.547Z,14.1
2018-04-08T04:39:10.965Z,14.2
2018-04-08T04:40:12.370Z,14.2
2018-04-08T04:41:13.803Z,14.2
2018-04-08T04:42:15.192Z,14.3
2018-04-08T04:43:16.586Z,14.2
2018-04-08T04:44:17.971Z,14.2
2018-04-08T04:45:19.363Z,14.3
2018-04-08T04:46:20.752Z,14.3
2018-04-08T04:47:22.134Z,14.2
2018-04-08T04:48:23.544Z,14.2
2018-04-08T04:49:24.932Z,14.3
2018-04-08T04:50:26.431Z,14.3
2018-04-08T04:51:27.866Z,14.4
2018-04-08T04:52:29.259Z,14.3
2018-04-08T04:53:30.681Z,14.3
2018-04-08T04:54:32.071Z,14.3
2018-04-08T04:55:33.469Z,14.3
2018-04-08T04:56:34.860Z,14.3
2018-04-08T04:57:36.247Z,14.2
2018-04-08T04:58:37.637Z,14.2
2018-04-08T04:59:39.027Z,14.2
2018-04-08T05:00:40.422Z,14.2
2018-04-08T05:01:41.820Z,14.1
2018-04-08T05:02:43.227Z,14.2
2018-04-08T05:03:44.624Z,14.2
2018-04-08T05:04:46.013Z,14.2
2018-04-08T05:05:47.403Z,14.2
2018-04-08T05:06:48.846Z,14.2
2018-04-08T05:07:50.239Z,14.1
2018-04-08T05:08:51.626Z,14.2
2018-04-08T05:09:53.062Z,14.2
2018-04-08T05:10:54.449Z,14.2
2018-04-08T05:11:55.840Z,14.2
2018-04-08T05:12:57.263Z,14.2
2018-04-08T05:13:58.695Z,14.2
2018-04-08T05:15:00.052Z,14.3
2018-04-08T05:16:01.442Z,14.3
2018-04-08T05:17:02.831Z,14.2
2018-04-08T05:18:04.242Z,14.2
2018-04-08T05:19:05.638Z,14.3
2018-04-08T05:20:07.029Z,14.3
2018-04-08T05:21:08.417Z,14.3
2018-04-08T05:22:09.814Z,14.3
2018-04-08T05:23:11.249Z,14.3
2018-04-08T05:24:12.630Z,14.4
2018-04-08T05:25:14.021Z,14.4
2018-04-08T05:26:15.412Z,14.4
2018-04-08T05:27:16.852Z,14.4
2018-04-08T05:28:18.245Z,14.4
2018-04-08T05:29:19.637Z,14.4
2018-04-08T05:30:21.035Z,14.4
2018-04-08T05:31:22.425Z,14.5
2018-04-08T05:32:23.830Z,14.5
2018-04-08T05:33:25.275Z,14.6
2018-04-08T05:34:26.661Z,14.5
2018-04-08T05:35:28.057Z,14.5
2018-04-08T05:36:29.452Z,14.6
2018-04-08T05:37:30.844Z,14.6
2018-04-08T05:38:32.234Z,14.7
2018-04-08T05:39:33.648Z,14.7
2018-04-08T05:40:35.199Z,14.7
2018-04-08T05:41:36.624Z,14.7
2018-04-08T05:42:38.022Z,14.8
2018-04-08T05:43:39.480Z,14.8
2018-04-08T05:44:40.919Z,14.9
2018-04-08T05:45:42.315Z,14.9
2018-04-08T05:46:43.730Z,14.9
2018-04-08T05:47:45.124Z,15.0
2018-04-08T05:48:46.532Z,15.0
2018-04-08T05:49:47.923Z,15.1
2018-04-08T05:50:49.368Z,15.1
2018-04-08T05:51:50.768Z,15.1
2018-04-08T05:52:52.158Z,15.1
2018-04-08T05:53:53.578Z,15.2
2018-04-08T05:54:55.052Z,15.1
2018-04-08T05:55:56.448Z,15.1
2018-04-08T05:56:57.853Z,15.2
2018-04-08T05:57:59.305Z,15.2
2018-04-08T05:59:00.692Z,15.3
2018-04-08T06:00:02.123Z,15.3
2018-04-08T06:01:03.550Z,15.3
2018-04-08T06:02:04.944Z,15.4
2018-04-08T06:03:06.334Z,15.4
2018-04-08T06:04:07.728Z,15.4
2018-04-08T06:05:09.120Z,15.5
2018-04-08T06:06:10.519Z,15.5
2018-04-08T06:07:11.945Z,15.5
2018-04-08T06:08:13.342Z,15.5
2018-04-08T06:09:14.728Z,15.5
2018-04-08T06:10:16.120Z,15.6
2018-04-08T06:11:17.516Z,15.7
2018-04-08T06:12:18.933Z,15.7
2018-04-08T06:13:20.322Z,15.6
2018-04-08T06:14:21.722Z,15.6
2018-04-08T06:15:23.117Z,15.5
2018-04-08T06:16:24.541Z,15.7
2018-04-08T06:17:25.908Z,15.7
2018-04-08T06:18:27.377Z,15.7
2018-04-08T06:19:28.767Z,15.8
2018-04-08T06:20:30.201Z,15.8
2018-04-08T06:21:31.626Z,15.8
2018-04-08T06:22:33.021Z,15.8
2018-04-08T06:23:34.423Z,15.8
2018-04-08T06:24:35.830Z,15.8
2018-04-08T06:25:37.212Z,15.8
2018-04-08T06:26:38.612Z,15.8
2018-04-08T06:27:40.077Z,15.8
2018-04-08T06:28:41.469Z,15.7
2018-04-08T06:29:43.063Z,15.8
2018-04-08T06:30:44.704Z,15.8
2018-04-08T06:31:46.101Z,15.8
2018-04-08T06:32:47.495Z,15.8
2018-04-08T06:33:48.935Z,15.8
2018-04-08T06:34:50.329Z,15.8
2018-04-08T06:35:51.754Z,15.9
2018-04-08T06:36:53.145Z,15.9
2018-04-08T06:37:54.540Z,15.9
2018-04-08T06:38:55.932Z,15.8
2018-04-08T06:39:57.328Z,15.9
2018-04-08T06:40:58.737Z,15.9
2018-04-08T06:42:00.139Z,16.0
2018-04-08T06:43:01.531Z,16.0
2018-04-08T06:44:02.931Z,16.1
2018-04-08T06:45:04.325Z,16.1
2018-04-08T06:46:05.722Z,16.0
2018-04-08T06:47:07.119Z,16.1
2018-04-08T06:48:08.520Z,16.1
2018-04-08T06:49:09.910Z,16.0
2018-04-08T06:50:11.810Z,16.1
2018-04-08T06:51:13.188Z,16.0
2018-04-08T06:52:14.696Z,16.1
2018-04-08T06:53:16.135Z,16.0
2018-04-08T06:54:17.532Z,16.1
2018-04-08T06:55:19.010Z,16.0
2018-04-08T06:56:20.450Z,16.0
2018-04-08T06:57:21.848Z,16.0
2018-04-08T06:58:23.290Z,16.0
2018-04-08T06:59:24.637Z,16.0
2018-04-08T07:00:26.035Z,16.0
2018-04-08T07:01:27.452Z,16.0
2018-04-08T07:02:28.880Z,16.0
2018-04-08T07:03:30.277Z,16.0
2018-04-08T07:04:31.671Z,16.0
2018-04-08T07:05:33.094Z,16.0
2018-04-08T07:06:34.491Z,16.1
2018-04-08T07:07:35.890Z,16.1
2018-04-08T07:08:37.284Z,16.2
2018-04-08T07:09:38.715Z,16.2
2018-04-08T07:10:40.233Z,16.2
2018-04-08T07:11:41.597Z,16.2
2018-04-08T07:12:42.993Z,16.2
2018-04-08T07:13:44.387Z,16.4
2018-04-08T07:14:45.784Z,16.3
2018-04-08T07:15:47.180Z,16.3
2018-04-08T07:16:48.635Z,16.4
2018-04-08T07:17:50.098Z,16.5
2018-04-08T07:18:51.491Z,16.4
2018-04-08T07:19:52.924Z,16.6
2018-04-08T07:20:54.349Z,16.6
2018-04-08T07:21:55.749Z,16.7
2018-04-08T07:22:57.142Z,16.8
2018-04-08T07:23:58.658Z,16.8
2018-04-08T07:25:00.009Z,16.9
2018-04-08T07:26:01.406Z,16.9
2018-04-08T07:27:02.802Z,17.0
2018-04-08T07:28:04.245Z,17.1
2018-04-08T07:29:05.643Z,17.1
2018-04-08T07:30:07.043Z,17.3
2018-04-08T07:31:08.443Z,17.3
2018-04-08T07:32:09.874Z,17.4
2018-04-08T07:33:11.363Z,17.5
2018-04-08T07:34:12.801Z,17.6
2018-04-08T07:35:14.214Z,17.7
2018-04-08T07:36:15.614Z,17.7
2018-04-08T07:37:17.014Z,17.9
2018-04-08T07:38:18.410Z,17.9
2018-04-08T07:39:19.800Z,18.0
2018-04-08T07:40:21.200Z,18.1
2018-04-08T07:41:22.594Z,18.2
2018-04-08T07:42:24.018Z,18.2
2018-04-08T07:43:25.419Z,18.4
2018-04-08T07:44:26.852Z,18.4
2018-04-08T07:45:28.248Z,18.4
2018-04-08T07:46:29.794Z,18.5
2018-04-08T07:47:31.190Z,18.5
2018-04-08T07:48:32.633Z,18.6
2018-04-08T07:49:34.017Z,18.7
2018-04-08T07:50:35.415Z,18.7
2018-04-08T07:51:36.822Z,18.9
2018-04-08T07:52:38.225Z,18.9
2018-04-08T07:53:39.620Z,18.9
2018-04-08T07:54:41.025Z,19.0
2018-04-08T07:55:42.444Z,19.0
2018-04-08T07:56:43.843Z,19.1
2018-04-08T07:57:45.256Z,19.0
2018-04-08T07:58:46.652Z,19.2
2018-04-08T07:59:48.047Z,19.4
2018-04-08T08:00:49.444Z,19.4
2018-04-08T08:01:50.843Z,19.5
2018-04-08T08:02:52.238Z,19.4
2018-04-08T08:03:53.704Z,19.6
2018-04-08T08:04:55.092Z,19.6
2018-04-08T08:05:56.639Z,19.6
2018-04-08T08:06:58.053Z,19.6
2018-04-08T08:07:59.448Z,19.7
2018-04-08T08:09:00.848Z,19.6
2018-04-08T08:10:02.248Z,19.7
2018-04-08T08:11:03.667Z,19.6
2018-04-08T08:12:05.065Z,19.7
2018-04-08T08:13:06.468Z,19.8
2018-04-08T08:14:07.862Z,19.8
2018-04-08T08:15:09.276Z,19.9
2018-04-08T08:16:10.671Z,20.0
2018-04-08T08:17:12.067Z,20.0
2018-04-08T08:18:13.554Z,20.0
2018-04-08T08:19:14.941Z,20.1
2018-04-08T08:20:16.340Z,20.0
2018-04-08T08:21:17.784Z,20.0
2018-04-08T08:22:19.136Z,20.0
2018-04-08T08:23:20.530Z,20.1
2018-04-08T08:24:21.932Z,20.1
2018-04-08T08:25:23.333Z,20.1
2018-04-08T08:26:24.735Z,20.2
2018-04-08T08:27:26.136Z,20.2
2018-04-08T08:28:27.533Z,20.3
2018-04-08T08:29:28.934Z,20.3
2018-04-08T08:30:30.330Z,20.5
2018-04-08T08:31:31.730Z,20.5
2018-04-08T08:32:33.126Z,20.6
2018-04-08T08:33:34.527Z,20.6
2018-04-08T08:34:35.926Z,20.7
2018-04-08T08:35:37.324Z,20.7
2018-04-08T08:36:38.721Z,20.8
2018-04-08T08:37:40.119Z,20.7
2018-04-08T08:38:41.517Z,20.9
2018-04-08T08:39:42.954Z,20.9
2018-04-08T08:40:44.339Z,20.9
2018-04-08T08:41:45.788Z,21.0
2018-04-08T08:42:47.138Z,21.0
2018-04-08T08:43:48.531Z,21.1
2018-04-08T08:44:49.928Z,21.2
2018-04-08T08:45:51.327Z,21.2
2018-04-08T08:46:52.729Z,21.3
2018-04-08T08:47:54.153Z,21.4
2018-04-08T08:48:55.552Z,21.5
2018-04-08T08:49:56.948Z,21.7
2018-04-08T08:50:58.346Z,21.8
2018-04-08T08:51:59.744Z,21.9
2018-04-08T08:53:01.143Z,22.0
2018-04-08T08:54:02.597Z,21.9
2018-04-08T08:55:04.056Z,22.0
2018-04-08T08:56:05.455Z,22.0
2018-04-08T08:57:06.854Z,22.1
2018-04-08T08:58:08.248Z,22.1
2018-04-08T08:59:09.651Z,22.1
2018-04-08T09:00:11.051Z,22.2
2018-04-08T09:01:12.448Z,22.1
2018-04-08T09:02:13.932Z,22.2
2018-04-08T09:03:15.339Z,22.4
2018-04-08T09:04:16.727Z,22.3
2018-04-08T09:05:18.127Z,22.4
2018-04-08T09:06:19.528Z,22.4
2018-04-08T09:07:20.954Z,22.4
2018-04-08T09:08:22.361Z,22.5
2018-04-08T09:09:23.788Z,22.5
2018-04-08T09:10:25.195Z,22.4
2018-04-08T09:11:26.595Z,22.6
2018-04-08T09:12:27.996Z,22.7
2018-04-08T09:13:30.251Z,22.7
2018-04-08T09:14:31.663Z,22.8
2018-04-08T09:15:33.089Z,23.0
2018-04-08T09:16:34.486Z,23.2
2018-04-08T09:17:35.898Z,23.1
2018-04-08T09:18:37.317Z,23.2
2018-04-08T09:19:38.721Z,23.2
2018-04-08T09:20:40.128Z,23.4
2018-04-08T09:21:41.529Z,23.4
2018-04-08T09:22:42.934Z,23.7
2018-04-08T09:23:44.348Z,23.8
2018-04-08T09:24:45.748Z,24.0
2018-04-08T09:25:47.177Z,24.2
2018-04-08T09:26:48.591Z,24.3
2018-04-08T09:27:49.985Z,24.4
2018-04-08T09:28:51.387Z,24.6
2018-04-08T09:29:53.137Z,24.7
2018-04-08T09:30:54.520Z,24.7
2018-04-08T09:31:55.951Z,24.9
2018-04-08T09:32:57.353Z,25.1
2018-04-08T09:33:58.785Z,25.2
2018-04-08T09:35:00.187Z,25.4
2018-04-08T09:36:01.587Z,25.5
2018-04-08T09:37:02.996Z,25.7
2018-04-08T09:38:04.419Z,25.8
2018-04-08T09:39:05.822Z,26.0
2018-04-08T09:40:07.221Z,26.1
2018-04-08T09:41:08.731Z,26.3
2018-04-08T09:42:10.205Z,26.5
2018-04-08T09:43:11.607Z,26.6
2018-04-08T09:44:13.009Z,26.6
2018-04-08T09:45:14.435Z,26.7
2018-04-08T09:46:15.863Z,26.5
2018-04-08T09:47:17.261Z,26.5
2018-04-08T09:48:18.707Z,26.4
2018-04-08T09:49:20.111Z,26.3
2018-04-08T09:50:21.512Z,26.2
2018-04-08T09:51:22.914Z,26.2
2018-04-08T09:52:24.339Z,26.1
2018-04-08T09:53:25.741Z,26.2
2018-04-08T09:54:27.146Z,26.2
2018-04-08T09:55:28.540Z,26.2
2018-04-08T09:56:29.947Z,26.4
2018-04-08T09:57:31.355Z,26.3
2018-04-08T09:58:32.755Z,26.5
2018-04-08T09:59:34.166Z,26.4
2018-04-08T10:00:35.560Z,26.4
2018-04-08T10:01:37.081Z,26.4
2018-04-08T10:02:38.464Z,26.4
2018-04-08T10:03:39.865Z,26.4
2018-04-08T10:04:41.263Z,26.4
2018-04-08T10:05:42.676Z,26.4
2018-04-08T10:06:44.129Z,26.3
2018-04-08T10:07:45.529Z,26.1
2018-04-08T10:08:46.927Z,26.1
2018-04-08T10:09:48.329Z,26.1
2018-04-08T10:10:49.725Z,26.2
2018-04-08T10:11:51.138Z,26.3
2018-04-08T10:12:52.537Z,26.3
2018-04-08T10:13:53.962Z,26.4
2018-04-08T10:14:55.398Z,26.3
2018-04-08T10:15:56.801Z,26.3
2018-04-08T10:16:58.196Z,26.3
2018-04-08T10:17:59.598Z,26.3
2018-04-08T10:19:01.001Z,26.1
2018-04-08T10:20:02.404Z,26.1
2018-04-08T10:21:03.942Z,26.0
2018-04-08T10:22:05.345Z,25.9
2018-04-08T10:23:06.868Z,25.9
2018-04-08T10:24:08.267Z,25.9
2018-04-08T10:25:09.761Z,25.9
2018-04-08T10:26:11.478Z,26.0
2018-04-08T10:27:12.926Z,26.1
2018-04-08T10:28:14.449Z,26.2
2018-04-08T10:29:15.926Z,26.4
2018-04-08T10:30:17.328Z,26.4
2018-04-08T10:31:18.779Z,26.4
2018-04-08T10:32:20.137Z,26.5
2018-04-08T10:33:21.540Z,26.6
2018-04-08T10:34:22.947Z,26.6
2018-04-08T10:35:24.382Z,26.6
2018-04-08T10:36:25.819Z,26.4
2018-04-08T10:37:27.183Z,26.4
2018-04-08T10:38:28.596Z,26.4
2018-04-08T10:39:29.997Z,26.3
2018-04-08T10:40:31.398Z,26.3
2018-04-08T10:41:32.813Z,26.4
2018-04-08T10:42:34.245Z,26.5
2018-04-08T10:43:35.660Z,26.6
2018-04-08T10:44:37.062Z,26.8
2018-04-08T10:45:38.463Z,26.8
2018-04-08T10:46:39.863Z,27.0
2018-04-08T10:47:41.263Z,27.2
2018-04-08T10:48:42.668Z,27.3
2018-04-08T10:49:44.135Z,27.3
2018-04-08T10:50:45.558Z,27.3
2018-04-08T10:51:46.946Z,27.4
2018-04-08T10:52:48.339Z,27.4
2018-04-08T10:53:49.743Z,27.4
2018-04-08T10:54:51.141Z,27.4
2018-04-08T10:55:52.545Z,27.3
2018-04-08T10:56:53.975Z,27.1
2018-04-08T10:57:55.404Z,27.2
2018-04-08T10:58:56.805Z,27.1
2018-04-08T10:59:58.210Z,27.2
2018-04-08T11:00:59.607Z,27.2
2018-04-08T11:02:01.011Z,27.1
2018-04-08T11:03:02.409Z,27.2
2018-04-08T11:04:03.814Z,27.4
2018-04-08T11:05:05.216Z,27.5
2018-04-08T11:06:06.622Z,27.7
2018-04-08T11:07:08.023Z,27.9
2018-04-08T11:08:09.426Z,28.0
2018-04-08T11:09:10.875Z,28.2
2018-04-08T11:10:12.239Z,28.4
2018-04-08T11:11:13.676Z,28.7
2018-04-08T11:12:15.082Z,28.7
2018-04-08T11:13:16.479Z,28.7
2018-04-08T11:14:17.880Z,28.7
2018-04-08T11:15:19.344Z,28.6
2018-04-08T11:16:20.900Z,28.4
2018-04-08T11:17:22.368Z,28.2
2018-04-08T11:18:23.943Z,28.1
2018-04-08T11:19:25.347Z,27.9
2018-04-08T11:20:26.859Z,28.0
2018-04-08T11:21:28.261Z,27.9
2018-04-08T11:22:29.677Z,27.8
2018-04-08T11:23:31.067Z,27.8
2018-04-08T11:24:32.475Z,27.6
2018-04-08T11:25:33.899Z,27.6
2018-04-08T11:26:35.298Z,27.5
2018-04-08T11:27:36.705Z,27.5
2018-04-08T11:28:38.126Z,27.6
2018-04-08T11:29:39.539Z,27.6
2018-04-08T11:30:40.903Z,27.6
2018-04-08T11:31:42.297Z,27.4
2018-04-08T11:32:43.720Z,27.5
2018-04-08T11:33:45.129Z,27.5
2018-04-08T11:34:46.528Z,27.7
2018-04-08T11:35:47.990Z,27.9
2018-04-08T11:36:49.432Z,28.1
2018-04-08T11:37:50.834Z,28.3
2018-04-08T11:38:52.241Z,28.3
2018-04-08T11:39:53.659Z,28.4
2018-04-08T11:40:55.066Z,28.5
2018-04-08T11:41:56.524Z,28.5
2018-04-08T11:42:57.948Z,28.6
2018-04-08T11:43:59.480Z,28.7
2018-04-08T11:45:01.058Z,28.9
2018-04-08T11:46:02.465Z,29.0
2018-04-08T11:47:03.896Z,28.9
2018-04-08T11:48:05.307Z,28.9
2018-04-08T11:49:06.712Z,28.8
2018-04-08T11:50:08.140Z,28.8
2018-04-08T11:51:09.538Z,28.9
2018-04-08T11:52:10.947Z,29.3
2018-04-08T11:53:12.347Z,29.5
2018-04-08T11:54:13.953Z,29.8
2018-04-08T11:55:15.687Z,30.1
2018-04-08T11:56:17.182Z,30.2
2018-04-08T11:57:18.600Z,30.3
2018-04-08T11:58:20.099Z,30.4
2018-04-08T11:59:21.701Z,30.4
2018-04-08T12:00:23.411Z,30.6
2018-04-08T12:01:25.063Z,30.6
2018-04-08T12:02:26.471Z,30.8
2018-04-08T12:03:28.103Z,30.8
2018-04-08T12:04:29.862Z,30.9
2018-04-08T12:05:31.495Z,31.0
2018-04-08T12:06:32.896Z,31.1
2018-04-08T12:07:34.317Z,31.2
2018-04-08T12:08:35.861Z,31.3
2018-04-08T12:09:37.553Z,31.5
2018-04-08T12:10:38.991Z,31.5
2018-04-08T12:11:40.397Z,31.7
2018-04-08T12:12:42.023Z,31.7
2018-04-08T12:13:43.763Z,31.7
2018-04-08T12:14:45.415Z,31.8
2018-04-08T12:15:46.816Z,32.0
2018-04-08T12:16:48.363Z,32.0
2018-04-08T12:17:49.932Z,32.2
2018-04-08T12:18:51.611Z,32.2
2018-04-08T12:19:53.285Z,32.3
2018-04-08T12:20:54.694Z,32.3
2018-04-08T12:21:56.135Z,32.3
2018-04-08T12:22:57.735Z,32.5
2018-04-08T12:23:59.318Z,32.5
2018-04-08T12:25:00.719Z,32.6
2018-04-08T12:26:02.265Z,32.7
2018-04-08T12:27:03.960Z,32.6
2018-04-08T12:28:05.596Z,32.7
2018-04-08T12:29:07.071Z,32.7
2018-04-08T12:30:08.364Z,32.7
2018-04-08T12:31:09.909Z,32.7
2018-04-08T12:32:11.451Z,32.8
2018-04-08T12:33:12.834Z,32.7
2018-04-08T12:34:14.238Z,32.8
2018-04-08T12:35:15.856Z,32.7
2018-04-08T12:36:17.409Z,32.7
2018-04-08T12:37:18.826Z,32.7
2018-04-08T12:38:20.365Z,32.6
2018-04-08T12:39:22.032Z,32.6
2018-04-08T12:40:23.841Z,32.8
2018-04-08T12:41:25.456Z,32.8
2018-04-08T12:42:26.836Z,32.8
2018-04-08T12:43:28.410Z,32.7
2018-04-08T12:44:29.945Z,32.6
2018-04-08T12:45:31.520Z,32.7
2018-04-08T12:46:32.924Z,32.8
2018-04-08T12:47:34.419Z,32.8
2018-04-08T12:48:35.980Z,32.8
2018-04-08T12:49:37.659Z,33.0
2018-04-08T12:50:39.080Z,32.9
2018-04-08T12:51:40.485Z,33.0
2018-04-08T12:52:42.033Z,33.1
2018-04-08T12:53:43.638Z,33.2
2018-04-08T12:54:45.059Z,33.2
2018-04-08T12:55:46.464Z,33.2
2018-04-08T12:56:47.878Z,33.1
2018-04-08T12:57:49.280Z,33.1
2018-04-08T12:58:50.686Z,33.0
2018-04-08T12:59:52.092Z,32.9
2018-04-08T13:00:53.537Z,33.0
2018-04-08T13:01:54.944Z,33.1
2018-04-08T13:02:56.353Z,33.2
2018-04-08T13:03:57.763Z,33.4
2018-04-08T13:04:59.172Z,33.4
2018-04-08T13:06:00.577Z,33.4
2018-04-08T13:07:02.023Z,33.3
2018-04-08T13:08:03.413Z,33.3
2018-04-08T13:09:04.843Z,33.1
2018-04-08T13:10:06.259Z,32.9
2018-04-08T13:11:07.673Z,33.0
2018-04-08T13:12:09.112Z,33.1
2018-04-08T13:13:10.515Z,33.2
2018-04-08T13:14:11.981Z,33.3
2018-04-08T13:15:13.352Z,33.4
2018-04-08T13:16:14.759Z,33.3
2018-04-08T13:17:16.165Z,33.3
2018-04-08T13:18:17.567Z,33.4
2018-04-08T13:19:18.980Z,33.5
2018-04-08T13:20:20.388Z,33.4
2018-04-08T13:21:21.796Z,33.4
2018-04-08T13:22:23.209Z,33.3
2018-04-08T13:23:24.611Z,33.1
2018-04-08T13:24:26.017Z,33.2
2018-04-08T13:25:27.539Z,33.2
2018-04-08T13:26:28.957Z,33.1
2018-04-08T13:27:30.373Z,33.1
2018-04-08T13:28:31.778Z,33.0
2018-04-08T13:29:33.193Z,33.0
2018-04-08T13:30:34.590Z,33.2
2018-04-08T13:31:35.996Z,33.2
2018-04-08T13:32:37.439Z,33.2
2018-04-08T13:33:38.874Z,33.3
2018-04-08T13:34:40.284Z,33.3
2018-04-08T13:35:41.694Z,33.2
2018-04-08T13:36:43.097Z,33.2
2018-04-08T13:37:44.502Z,33.2